Time;durP1;ratioP1;P1;durP2;ratioP2;P2;SDS_P1;SDS_P2;PMS_P1;PMS_P2;Temp;Humidity;BMP_temperature;BMP_pressure;BME280_temperature;BME280_humidity;BME280_pressure;Samples;Min_cycle;Max_cycle;Signal;HPM_P1;HPM_P2
2021/06/20 00:00:19;;;;;;;17.45;3.62;;;;;;;21.14;66.53;100301.66;1755634;81;21081;-75
2021/06/20 00:02:47;;;;;;;12.10;3.20;;;;;;;21.07;67.16;100301.78;1755099;81;21090;-77
2021/06/20 00:05:17;;;;;;;9.23;2.83;;;;;;;20.98;67.36;100300.69;1755383;81;21078;-79
2021/06/20 00:07:44;;;;;;;10.68;2.77;;;;;;;20.92;67.65;100290.45;1755527;81;21101;-75
2021/06/20 00:10:15;;;;;;;9.13;2.95;;;;;;;20.84;68.12;100299.05;1755201;81;21557;-76
2021/06/20 00:12:42;;;;;;;12.88;3.22;;;;;;;20.77;68.55;100291.14;1755265;81;21081;-77
2021/06/20 00:15:14;;;;;;;12.95;2.80;;;;;;;20.73;68.86;100297.23;1755329;81;21110;-74
2021/06/20 00:17:41;;;;;;;5.30;2.50;;;;;;;20.70;68.85;100300.12;1723949;83;21078;-76
2021/06/20 00:20:10;;;;;;;12.35;2.83;;;;;;;20.65;69.16;100302.30;1723720;83;21085;-75
2021/06/20 00:22:37;;;;;;;10.25;2.65;;;;;;;20.63;69.24;100302.90;1723954;83;21114;-76
2021/06/20 00:25:06;;;;;;;10.78;2.30;;;;;;;20.60;69.38;100300.96;1723782;83;21015;-76
2021/06/20 00:27:33;;;;;;;9.38;2.47;;;;;;;20.56;69.55;100300.33;1724055;83;21113;-73
2021/06/20 00:30:00;;;;;;;10.75;2.70;;;;;;;20.56;69.77;100296.31;1725186;81;21749;-77
2021/06/20 00:32:27;;;;;;;6.50;2.65;;;;;;;20.53;69.80;100296.03;1755275;81;21078;-75
2021/06/20 00:34:54;;;;;;;13.48;2.50;;;;;;;20.52;69.87;100293.47;1755123;81;21592;-74
2021/06/20 00:37:21;;;;;;;13.50;2.30;;;;;;;20.49;70.02;100294.55;1755486;81;21058;-74
2021/06/20 00:39:50;;;;;;;7.60;2.42;;;;;;;20.48;70.26;100298.70;1755269;81;21636;-74
2021/06/20 00:42:17;;;;;;;8.50;2.60;;;;;;;20.45;70.31;100293.56;1755005;81;21134;-74
2021/06/20 00:44:49;;;;;;;10.72;2.20;;;;;;;20.44;70.32;100297.22;1755168;81;21693;-75
2021/06/20 00:47:19;;;;;;;9.60;2.55;;;;;;;20.42;70.46;100297.82;1755523;81;21556;-74
2021/06/20 00:49:46;;;;;;;15.20;2.62;;;;;;;20.40;70.46;100294.41;1755770;81;21058;-75
2021/06/20 00:52:14;;;;;;;4.37;2.12;;;;;;;20.38;70.71;100304.36;1755519;81;21160;-73
2021/06/20 00:54:47;;;;;;;7.78;2.33;;;;;;;20.34;70.97;100297.07;1745877;81;21047;-75
2021/06/20 00:57:19;;;;;;;5.05;2.20;;;;;;;20.31;70.97;100299.50;1741988;82;21066;-74
2021/06/20 00:59:46;;;;;;;13.08;2.70;;;;;;;20.30;70.81;100297.77;1742006;82;21021;-74
2021/06/20 01:02:14;;;;;;;8.63;3.40;;;;;;;20.27;71.00;100296.67;1742277;82;21032;-75
2021/06/20 01:04:47;;;;;;;11.35;2.60;;;;;;;20.25;71.19;100299.10;1741988;82;21133;-74
2021/06/20 01:07:15;;;;;;;7.60;2.15;;;;;;;20.23;71.31;100304.55;1742335;82;21544;-74
2021/06/20 01:09:42;;;;;;;7.83;2.55;;;;;;;20.21;71.36;100309.16;1741873;82;21637;-75
2021/06/20 01:12:11;;;;;;;8.55;2.90;;;;;;;20.20;71.50;100315.48;1742390;82;21066;-75
2021/06/20 01:14:37;;;;;;;9.83;3.12;;;;;;;20.18;71.62;100308.06;1742335;82;21067;-75
2021/06/20 01:17:05;;;;;;;8.20;3.20;;;;;;;20.16;71.58;100309.98;1741896;82;21148;-74
2021/06/20 01:19:33;;;;;;;9.30;2.90;;;;;;;20.12;72.15;100307.17;1742029;82;21051;-75
2021/06/20 01:22:26;;;;;;;7.65;3.00;;;;;;;20.08;72.17;100301.67;1742170;82;21126;-74
2021/06/20 01:24:56;;;;;;;8.55;3.35;;;;;;;19.99;72.21;100298.34;1733840;82;21066;-73
2021/06/20 01:27:38;;;;;;;15.93;3.40;;;;;;;20.00;72.49;100302.73;1742452;82;21110;-73
2021/06/20 01:30:10;;;;;;;10.95;3.47;;;;;;;19.97;72.57;100308.29;1742241;82;22315;-76
2021/06/20 01:32:37;;;;;;;7.20;3.10;;;;;;;19.93;72.64;100293.47;1742035;82;21578;-80
2021/06/20 01:35:05;;;;;;;11.68;4.53;;;;;;;19.90;72.74;100302.08;1741993;82;21046;-79
2021/06/20 01:37:32;;;;;;;15.23;6.03;;;;;;;19.86;72.80;100301.92;1742360;82;21761;-78
2021/06/20 01:39:59;;;;;;;11.80;5.55;;;;;;;19.83;73.00;100307.50;1742618;82;21040;-80
2021/06/20 01:42:26;;;;;;;12.00;5.22;;;;;;;19.80;73.23;100315.72;1742572;82;21125;-82
2021/06/20 01:44:57;;;;;;;13.22;5.62;;;;;;;19.77;73.19;100316.45;1742464;82;21535;-82
2021/06/20 01:47:28;;;;;;;13.13;5.65;;;;;;;19.74;73.29;100325.54;1710510;82;21066;-78
2021/06/20 01:49:59;;;;;;;12.40;3.98;;;;;;;19.70;73.56;100321.38;1708526;84;21031;-77
2021/06/20 01:52:26;;;;;;;10.58;3.67;;;;;;;19.66;73.68;100321.19;1709005;83;21530;-78
2021/06/20 01:54:54;;;;;;;14.25;3.58;;;;;;;19.64;73.90;100322.63;1715372;83;21077;-75
2021/06/20 01:57:28;;;;;;;13.68;3.33;;;;;;;19.62;73.97;100326.37;1719045;82;21046;-75
2021/06/20 01:59:57;;;;;;;9.50;2.98;;;;;;;19.60;74.03;100326.95;1719346;83;21033;-75
2021/06/20 02:02:26;;;;;;;15.18;3.17;;;;;;;19.58;74.04;100318.19;1719326;83;21030;-75
2021/06/20 02:04:55;;;;;;;9.65;2.50;;;;;;;19.57;74.30;100316.50;1719501;83;21157;-76
2021/06/20 02:07:24;;;;;;;11.90;2.37;;;;;;;19.49;74.81;100315.73;1719273;82;21577;-76
2021/06/20 02:09:52;;;;;;;6.83;2.60;;;;;;;19.49;74.81;100315.73;1719245;83;21053;-76
2021/06/20 02:12:21;;;;;;;14.25;2.75;;;;;;;19.48;74.60;100320.19;1719152;83;21521;-77
2021/06/20 02:14:48;;;;;;;4.80;2.22;;;;;;;19.47;74.69;100317.16;1719409;83;21320;-75
2021/06/20 02:17:25;;;;;;;8.58;2.92;;;;;;;19.45;74.73;100305.73;1719353;83;21065;-73
2021/06/20 02:19:59;;;;;;;10.95;2.52;;;;;;;19.46;74.72;100311.46;1719429;83;21797;-78
2021/06/20 02:22:27;;;;;;;6.60;2.05;;;;;;;19.47;74.77;100305.14;1719428;83;22072;-75
2021/06/20 02:24:54;;;;;;;13.05;2.75;;;;;;;19.48;74.82;100298.82;1719573;83;21022;-76
2021/06/20 02:27:21;;;;;;;7.05;2.62;;;;;;;19.47;74.96;100293.12;1719485;83;21086;-77
2021/06/20 02:29:53;;;;;;;19.82;3.42;;;;;;;19.48;74.81;100300.16;1719468;83;21093;-76
2021/06/20 02:32:22;;;;;;;7.35;3.70;;;;;;;19.50;74.75;100292.05;1725093;83;22001;-76
2021/06/20 02:34:50;;;;;;;15.28;4.10;;;;;;;19.50;74.72;100290.22;1725289;83;21133;-77
2021/06/20 02:37:19;;;;;;;12.20;4.60;;;;;;;19.50;74.67;100284.87;1725083;83;21065;-78
2021/06/20 02:39:47;;;;;;;24.12;6.33;;;;;;;19.52;74.72;100286.60;1724990;83;21078;-77
2021/06/20 02:42:15;;;;;;;11.80;4.40;;;;;;;19.54;74.74;100291.36;1725175;83;21141;-76
2021/06/20 02:44:42;;;;;;;9.93;3.72;;;;;;;19.55;74.78;100303.73;1725196;83;21211;-76
2021/06/20 02:47:10;;;;;;;8.30;3.00;;;;;;;19.56;74.72;100290.77;1725031;83;21535;-76
2021/06/20 02:49:38;;;;;;;5.05;2.92;;;;;;;19.61;74.60;100299.30;1725259;83;21041;-75
2021/06/20 02:52:07;;;;;;;13.38;3.17;;;;;;;19.66;74.48;100293.98;1725407;83;21066;-77
2021/06/20 02:54:34;;;;;;;8.33;3.22;;;;;;;19.73;74.25;100300.26;1720413;82;21660;-73
2021/06/20 02:57:02;;;;;;;13.22;2.92;;;;;;;19.79;74.06;100300.67;1712429;83;21099;-74
2021/06/20 02:59:29;;;;;;;9.10;2.25;;;;;;;19.87;73.80;100307.63;1712469;83;21106;-73
2021/06/20 03:01:57;;;;;;;5.53;2.60;;;;;;;19.96;73.57;100314.61;1735668;82;21490;-74
2021/06/20 03:04:24;;;;;;;7.33;2.60;;;;;;;20.04;73.15;100321.11;1742223;82;21039;-73
2021/06/20 03:06:52;;;;;;;7.20;2.45;;;;;;;20.09;72.81;100320.77;1742048;82;21019;-73
2021/06/20 03:09:19;;;;;;;4.78;2.60;;;;;;;20.13;72.56;100308.89;1741868;81;21869;-73
2021/06/20 03:11:46;;;;;;;6.78;2.83;;;;;;;20.21;72.37;100305.64;1741876;82;21047;-75
2021/06/20 03:14:14;;;;;;;8.20;2.83;;;;;;;20.21;72.32;100298.45;1742252;82;21542;-74
2021/06/20 03:16:43;;;;;;;7.28;3.12;;;;;;;20.23;72.42;100300.54;1717278;82;21086;-75
2021/06/20 03:19:11;;;;;;;11.28;4.20;;;;;;;20.24;72.31;100304.91;1701971;84;21078;-76
2021/06/20 03:21:38;;;;;;;9.53;3.87;;;;;;;20.24;72.37;100315.60;1702264;84;21129;-74
2021/06/20 03:24:06;;;;;;;9.60;4.80;;;;;;;20.24;72.30;100314.27;1702144;84;21046;-76
2021/06/20 03:26:33;;;;;;;7.17;3.05;;;;;;;20.22;72.33;100316.23;1706480;82;21581;-71
2021/06/20 03:29:00;;;;;;;5.87;2.20;;;;;;;20.23;72.44;100325.09;1732482;82;21054;-84
2021/06/20 03:31:28;;;;;;;12.47;2.20;;;;;;;20.24;71.94;100332.98;1734889;82;21062;-83
2021/06/20 03:33:58;;;;;;;6.97;2.10;;;;;;;20.23;72.05;100337.12;1744267;81;21133;-82
2021/06/20 03:36:27;;;;;;;9.00;2.77;;;;;;;20.25;71.57;100350.75;1703175;84;21014;-82
2021/06/20 03:38:55;;;;;;;4.70;2.20;;;;;;;20.24;71.17;100350.36;1735531;82;21109;-84
2021/06/20 03:41:22;;;;;;;6.03;1.90;;;;;;;20.25;71.29;100337.88;1736372;82;21666;-82
2021/06/20 03:43:49;;;;;;;3.67;2.22;;;;;;;20.25;71.43;100338.72;1740234;81;21058;-84
2021/06/20 03:46:18;;;;;;;6.60;2.58;;;;;;;20.26;71.48;100331.05;1744143;81;21146;-82
2021/06/20 03:48:45;;;;;;;5.83;1.98;;;;;;;20.25;71.45;100332.03;1729991;82;21065;-81
2021/06/20 03:51:13;;;;;;;5.97;1.92;;;;;;;20.26;71.48;100333.73;1733902;82;21685;-82
2021/06/20 03:53:40;;;;;;;8.40;2.25;;;;;;;20.27;71.21;100327.43;1742441;82;21142;-81
2021/06/20 03:56:07;;;;;;;3.52;1.98;;;;;;;20.31;71.02;100333.38;1731892;81;21068;-83
2021/06/20 03:58:34;;;;;;;6.40;2.10;;;;;;;20.33;70.86;100321.60;1755651;81;21138;-77
2021/06/20 04:01:03;;;;;;;6.22;2.20;;;;;;;20.39;70.73;100315.45;1755599;81;21114;-76
2021/06/20 04:03:31;;;;;;;4.05;2.20;;;;;;;20.44;70.62;100315.45;1755468;81;21034;-76
2021/06/20 04:05:58;;;;;;;6.40;2.15;;;;;;;20.48;70.53;100310.74;1755302;81;21102;-75
2021/06/20 04:08:24;;;;;;;9.83;2.42;;;;;;;20.51;70.24;100307.83;1755063;81;21113;-79
2021/06/20 04:10:52;;;;;;;3.98;1.87;;;;;;;20.55;70.00;100311.98;1755603;81;21051;-81
2021/06/20 04:13:19;;;;;;;5.05;2.30;;;;;;;20.60;69.33;100306.31;1755280;81;21604;-81
2021/06/20 04:15:46;;;;;;;6.45;2.42;;;;;;;20.64;69.13;100295.26;1755630;81;21030;-80
2021/06/20 04:18:14;;;;;;;6.05;1.90;;;;;;;20.69;69.04;100294.41;1755983;81;21066;-80
2021/06/20 04:20:41;;;;;;;6.95;2.00;;;;;;;20.76;68.70;100284.59;1734458;81;21073;-80
2021/06/20 04:23:09;;;;;;;5.85;1.60;;;;;;;20.79;68.51;100281.66;1744450;81;21144;-79
2021/06/20 04:25:38;;;;;;;7.08;1.98;;;;;;;20.81;68.24;100286.41;1724612;81;21013;-81
2021/06/20 04:28:05;;;;;;;4.00;1.90;;;;;;;20.81;68.12;100293.95;1741474;81;21050;-78
2021/06/20 04:30:32;;;;;;;9.20;1.80;;;;;;;20.82;68.15;100294.80;1755529;81;21151;-80
2021/06/20 04:32:59;;;;;;;7.15;2.00;;;;;;;20.85;69.11;100294.58;1755361;81;21037;-71
2021/06/20 04:35:27;;;;;;;7.83;1.92;;;;;;;20.89;68.46;100285.31;1733229;81;21173;-77
2021/06/20 04:37:55;;;;;;;4.62;2.15;;;;;;;20.96;68.13;100273.19;1754735;81;21049;-81
2021/06/20 04:40:23;;;;;;;10.85;2.40;;;;;;;21.07;68.17;100275.00;1755317;81;21026;-82
2021/06/20 04:43:03;;;;;;;7.85;2.15;;;;;;;21.21;67.30;100275.25;1754987;81;22073;-81
2021/06/20 04:45:25;;;;;;;12.13;2.55;;;;;;;21.31;67.14;100280.26;1752276;81;21138;-77
2021/06/20 04:47:52;;;;;;;8.73;2.58;;;;;;;21.41;66.73;100273.21;1724984;83;21162;-77
2021/06/20 04:50:19;;;;;;;7.72;3.08;;;;;;;21.51;66.56;100267.49;1701014;83;21041;-78
2021/06/20 04:52:46;;;;;;;8.73;2.20;;;;;;;21.68;65.78;100269.29;1725358;83;21079;-80
2021/06/20 04:55:14;;;;;;;4.53;2.33;;;;;;;21.85;65.13;100267.90;1713872;83;21072;-79
2021/06/20 04:57:41;;;;;;;5.50;2.12;;;;;;;22.04;64.55;100268.11;1691693;84;21063;-79
2021/06/20 05:00:11;;;;;;;5.15;2.00;;;;;;;22.17;63.46;100257.19;1691378;84;22002;-78
2021/06/20 05:02:38;;;;;;;8.58;2.15;;;;;;;22.29;63.17;100264.73;1691359;84;21401;-76
2021/06/20 05:05:07;;;;;;;13.38;2.00;;;;;;;22.40;62.09;100268.70;1691316;84;21103;-78
2021/06/20 05:07:33;;;;;;;6.62;2.02;;;;;;;22.47;61.84;100271.72;1691379;84;22114;-77
2021/06/20 05:10:00;;;;;;;6.40;1.92;;;;;;;22.59;61.68;100274.23;1691265;84;21559;-76
2021/06/20 05:12:27;;;;;;;4.12;1.77;;;;;;;22.81;61.24;100266.51;1691524;84;21124;-76
2021/06/20 05:14:54;;;;;;;5.35;2.10;;;;;;;23.18;59.84;100278.61;1691374;84;21055;-76
2021/06/20 05:17:21;;;;;;;5.97;1.50;;;;;;;23.59;58.25;100276.29;1691601;84;21394;-76
2021/06/20 05:19:49;;;;;;;5.08;1.95;;;;;;;24.02;56.08;100276.48;1691209;84;21062;-77
2021/06/20 05:22:18;;;;;;;6.45;2.45;;;;;;;24.35;54.39;100270.33;1691620;84;21516;-75
2021/06/20 05:24:47;;;;;;;4.97;1.70;;;;;;;24.60;54.74;100272.13;1691652;84;22103;-72
2021/06/20 05:27:14;;;;;;;4.20;1.45;;;;;;;24.79;54.09;100267.19;1715976;82;21055;-71
2021/06/20 05:29:41;;;;;;;9.00;2.10;;;;;;;24.90;52.00;100265.17;1719846;83;21059;-72
2021/06/20 05:32:08;;;;;;;7.20;1.72;;;;;;;24.96;52.52;100262.88;1711798;83;21017;-72
2021/06/20 05:34:35;;;;;;;4.78;1.65;;;;;;;25.07;51.49;100263.55;1708507;83;21095;-72
2021/06/20 05:37:04;;;;;;;5.70;1.70;;;;;;;25.08;51.05;100259.03;1719242;83;21137;-75
2021/06/20 05:39:31;;;;;;;8.95;1.60;;;;;;;25.04;50.77;100265.20;1719932;83;21035;-73
2021/06/20 05:41:58;;;;;;;7.08;1.87;;;;;;;25.14;50.83;100266.51;1719874;83;21629;-73
2021/06/20 05:44:25;;;;;;;8.40;1.77;;;;;;;25.33;50.49;100269.17;1715868;83;21051;-73
2021/06/20 05:46:53;;;;;;;4.55;1.50;;;;;;;25.56;49.61;100261.17;1716052;83;21135;-73
2021/06/20 05:49:20;;;;;;;5.92;1.32;;;;;;;25.77;49.37;100256.84;1718902;82;21112;-73
2021/06/20 05:51:47;;;;;;;5.53;1.65;;;;;;;25.98;49.04;100256.63;1720072;82;21102;-74
2021/06/20 05:54:14;;;;;;;6.95;1.60;;;;;;;26.03;47.87;100249.75;1720829;83;21088;-73
2021/06/20 05:56:41;;;;;;;5.87;1.65;;;;;;;25.91;47.92;100259.08;1737969;81;21094;-73
2021/06/20 05:59:08;;;;;;;5.00;1.17;;;;;;;25.70;47.29;100268.27;1738208;81;21089;-73
2021/06/20 06:01:36;;;;;;;9.08;1.70;;;;;;;25.60;48.05;100266.11;1741318;81;21074;-74
2021/06/20 06:04:04;;;;;;;5.22;1.57;;;;;;;25.50;47.96;100251.84;1743907;81;21058;-73
2021/06/20 06:06:32;;;;;;;7.12;1.47;;;;;;;25.41;48.62;100259.48;1732235;81;21082;-72
2021/06/20 06:08:59;;;;;;;5.50;1.60;;;;;;;25.22;48.85;100268.02;1737641;81;21068;-72
2021/06/20 06:11:27;;;;;;;4.85;1.47;;;;;;;25.07;49.69;100270.79;1732091;81;21612;-73
2021/06/20 06:13:55;;;;;;;8.68;1.50;;;;;;;24.90;50.22;100270.56;1733645;81;21095;-73
2021/06/20 06:16:22;;;;;;;3.85;1.60;;;;;;;24.78;50.72;100278.47;1745589;81;21759;-73
2021/06/20 06:18:50;;;;;;;8.83;1.85;;;;;;;24.68;51.34;100278.46;1743283;81;21042;-74
2021/06/20 06:21:17;;;;;;;5.80;2.33;;;;;;;24.60;50.71;100274.31;1743655;81;21066;-74
2021/06/20 06:23:45;;;;;;;13.90;2.20;;;;;;;24.56;51.69;100270.70;1745991;81;21057;-76
2021/06/20 06:26:12;;;;;;;6.62;2.30;;;;;;;24.66;52.34;100271.52;1737336;82;21113;-73
2021/06/20 06:28:39;;;;;;;9.55;2.37;;;;;;;24.80;51.55;100268.41;1737260;82;21089;-73
2021/06/20 06:31:07;;;;;;;6.72;1.98;;;;;;;24.98;51.51;100274.37;1740796;81;21026;-73
2021/06/20 06:33:35;;;;;;;5.53;1.65;;;;;;;25.00;50.28;100270.52;1747494;81;21067;-74
2021/06/20 06:36:03;;;;;;;9.13;1.90;;;;;;;24.96;50.18;100271.84;1753805;81;21588;-74
2021/06/20 06:38:31;;;;;;;10.72;2.02;;;;;;;24.86;50.77;100271.84;1730090;80;21143;-76
2021/06/20 06:40:58;;;;;;;6.67;2.10;;;;;;;24.77;50.97;100277.26;1742648;81;21035;-76
2021/06/20 06:43:25;;;;;;;7.65;1.70;;;;;;;24.72;51.71;100277.69;1744455;82;21648;-73
2021/06/20 06:45:52;;;;;;;11.83;1.80;;;;;;;24.67;51.57;100284.02;1742487;82;21118;-74
2021/06/20 06:48:19;;;;;;;7.22;1.60;;;;;;;24.63;51.84;100281.25;1740129;81;22258;-73
2021/06/20 06:50:47;;;;;;;13.13;1.75;;;;;;;24.56;51.41;100276.93;1746689;81;21120;-74
2021/06/20 06:53:14;;;;;;;8.38;1.50;;;;;;;24.53;51.91;100277.73;1746162;81;21129;-74
2021/06/20 06:55:41;;;;;;;10.43;1.85;;;;;;;24.53;51.72;100279.08;1746098;81;21058;-76
2021/06/20 06:58:08;;;;;;;10.63;1.70;;;;;;;24.53;51.83;100275.88;1761554;81;21643;-75
2021/06/20 07:00:41;;;;;;;10.10;2.12;;;;;;;24.58;51.98;100276.30;1756838;81;21145;-75
2021/06/20 07:03:13;;;;;;;11.43;1.82;;;;;;;24.62;51.43;100271.48;1766808;81;21095;-76
2021/06/20 07:05:41;;;;;;;6.05;1.80;;;;;;;24.59;51.29;100271.75;1768223;81;21049;-75
2021/06/20 07:08:09;;;;;;;9.15;1.92;;;;;;;24.58;51.29;100263.34;1750204;81;21145;-74
2021/06/20 07:10:36;;;;;;;11.30;1.80;;;;;;;24.56;51.47;100263.97;1746649;81;22155;-74
2021/06/20 07:13:03;;;;;;;11.73;2.10;;;;;;;24.52;50.74;100262.05;1742565;81;21069;-76
2021/06/20 07:15:30;;;;;;;7.10;2.45;;;;;;;24.49;50.40;100244.34;1759837;81;21092;-75
2021/06/20 07:17:58;;;;;;;9.13;2.90;;;;;;;24.50;50.27;100254.61;1767853;81;21062;-73
2021/06/20 07:20:25;;;;;;;10.55;2.17;;;;;;;24.54;50.31;100252.50;1753736;81;21051;-74
2021/06/20 07:22:52;;;;;;;20.25;2.52;;;;;;;24.68;49.75;100249.34;1749487;82;21636;-74
2021/06/20 07:25:21;;;;;;;5.72;1.85;;;;;;;24.96;49.25;100248.06;1749290;81;21074;-74
2021/06/20 07:27:49;;;;;;;6.40;1.40;;;;;;;25.40;48.54;100245.16;1749222;82;21756;-73
2021/06/20 07:30:19;;;;;;;8.68;1.67;;;;;;;25.88;47.60;100237.78;1754082;80;21136;-75
2021/06/20 07:32:49;;;;;;;6.85;2.22;;;;;;;26.32;45.28;100237.88;1750383;81;21106;-74
2021/06/20 07:35:16;;;;;;;6.78;2.02;;;;;;;26.65;45.10;100242.20;1749847;82;21307;-75
2021/06/20 07:37:44;;;;;;;12.07;2.08;;;;;;;26.80;44.35;100250.05;1748276;81;21541;-74
2021/06/20 07:40:12;;;;;;;8.98;1.77;;;;;;;26.78;43.71;100257.50;1750106;81;21127;-74
2021/06/20 07:42:41;;;;;;;7.00;1.50;;;;;;;26.70;44.20;100257.42;1736504;81;21568;-73
2021/06/20 07:45:09;;;;;;;10.90;1.80;;;;;;;26.69;44.16;100261.15;1750064;81;21090;-73
2021/06/20 07:47:37;;;;;;;5.45;1.30;;;;;;;26.75;43.99;100257.79;1745906;81;21086;-73
2021/06/20 07:50:10;;;;;;;8.48;1.45;;;;;;;27.03;43.29;100263.03;1746926;81;21117;-74
2021/06/20 07:52:38;;;;;;;12.18;1.95;;;;;;;27.39;41.82;100260.54;1741203;81;21122;-74
2021/06/20 07:55:09;;;;;;;9.78;1.32;;;;;;;27.69;41.28;100256.92;1744970;80;21132;-72
2021/06/20 07:57:36;;;;;;;5.92;1.27;;;;;;;28.03;40.45;100254.67;1756751;81;21078;-74
2021/06/20 08:00:05;;;;;;;8.98;1.45;;;;;;;28.40;38.95;100250.63;1751322;81;21048;-74
2021/06/20 08:02:34;;;;;;;9.88;1.22;;;;;;;28.52;37.98;100249.30;1736813;81;21029;-74
2021/06/20 08:05:01;;;;;;;4.00;1.47;;;;;;;28.43;37.38;100244.34;1748561;81;21224;-74
2021/06/20 08:07:27;;;;;;;8.33;1.25;;;;;;;28.28;38.40;100239.81;1749840;80;21061;-73
2021/06/20 08:09:59;;;;;;;14.38;1.72;;;;;;;28.30;38.59;100238.62;1741071;81;21061;-74
2021/06/20 08:12:24;;;;;;;11.10;1.50;;;;;;;28.51;39.16;100233.23;1736058;81;21090;-74
2021/06/20 08:14:52;;;;;;;15.78;1.50;;;;;;;28.79;37.69;100227.75;1752257;81;21622;-74
2021/06/20 08:17:23;;;;;;;10.18;1.45;;;;;;;29.09;37.45;100224.49;1753112;81;21102;-72
2021/06/20 08:19:51;;;;;;;21.65;1.60;;;;;;;29.45;36.51;100208.58;1745705;81;21093;-73
2021/06/20 08:22:19;;;;;;;4.85;1.20;;;;;;;29.74;35.65;100207.91;1752734;81;21108;-74
2021/06/20 08:24:46;;;;;;;7.45;1.30;;;;;;;29.72;34.68;100198.26;1750825;81;21023;-74
2021/06/20 08:27:13;;;;;;;6.72;1.35;;;;;;;29.63;34.71;100183.86;1747309;81;21065;-74
2021/06/20 08:29:41;;;;;;;6.97;1.35;;;;;;;29.50;35.35;100180.39;1754611;81;23087;-74
2021/06/20 08:32:08;;;;;;;10.43;1.32;;;;;;;29.28;36.02;100194.23;1750610;81;20988;-74
2021/06/20 08:34:35;;;;;;;8.35;1.30;;;;;;;29.31;36.38;100195.73;1749198;81;21098;-73
2021/06/20 08:37:02;;;;;;;4.53;1.17;;;;;;;29.41;35.28;100194.51;1752674;81;21119;-74
2021/06/20 08:39:29;;;;;;;8.45;1.72;;;;;;;29.53;35.79;100191.40;1749430;81;21097;-73
2021/06/20 08:41:56;;;;;;;6.55;1.30;;;;;;;29.73;35.28;100192.66;1755192;81;21570;-74
2021/06/20 08:44:32;;;;;;;9.35;1.50;;;;;;;29.99;34.53;100179.23;1751014;81;21074;-73
2021/06/20 08:47:00;;;;;;;11.18;1.45;;;;;;;30.17;35.11;100181.12;1752674;81;21513;-74
2021/06/20 08:49:27;;;;;;;12.45;1.77;;;;;;;30.42;34.31;100193.16;1755349;81;21090;-74
2021/06/20 08:51:56;;;;;;;8.53;1.65;;;;;;;30.36;33.54;100181.66;1755455;81;21105;-73
2021/06/20 08:54:23;;;;;;;5.60;1.27;;;;;;;30.27;33.91;100184.44;1739156;81;21242;-73
2021/06/20 08:56:51;;;;;;;10.80;1.30;;;;;;;30.47;33.57;100179.86;1755159;81;21070;-75
2021/06/20 08:59:22;;;;;;;7.00;1.35;;;;;;;30.60;33.05;100184.14;1755351;81;21082;-74
2021/06/20 09:01:49;;;;;;;7.95;1.65;;;;;;;30.70;33.90;100179.27;1754166;81;21145;-75
2021/06/20 09:04:36;;;;;;;7.83;1.35;;;;;;;30.85;33.36;100186.60;1752068;80;22000;-74
2021/06/20 09:07:05;;;;;;;8.83;1.57;;;;;;;31.02;33.13;100177.23;1755096;81;21086;-73
2021/06/20 09:09:35;;;;;;;7.40;1.67;;;;;;;31.19;32.38;100168.86;1754541;81;21114;-73
2021/06/20 09:12:08;;;;;;;7.37;1.40;;;;;;;31.25;32.82;100165.39;1756523;80;21074;-74
2021/06/20 09:14:49;;;;;;;8.58;1.40;;;;;;;31.31;32.99;100167.33;1755392;81;21049;-74
2021/06/20 09:17:28;;;;;;;7.92;1.50;;;;;;;31.45;31.40;100166.50;1751640;81;21116;-74
2021/06/20 09:20:00;;;;;;;6.67;1.42;;;;;;;31.52;31.90;100159.25;1722994;81;21116;-74
2021/06/20 09:22:27;;;;;;;7.37;1.57;;;;;;;31.58;31.07;100156.78;1743171;80;21575;-73
2021/06/20 09:25:25;;;;;;;;;;;;;;;;;;;;;
2021/06/20 09:27:58;;;;;;;6.10;1.07;;;;;;;31.36;31.74;100143.13;1736549;81;21063;-74
2021/06/20 09:30:29;;;;;;;7.92;1.60;;;;;;;31.58;31.28;100148.62;1755467;81;21062;-74
2021/06/20 09:33:04;;;;;;;8.00;0.95;;;;;;;31.54;30.70;100146.30;1751856;81;21165;-73
2021/06/20 09:35:46;;;;;;;11.05;1.40;;;;;;;31.46;30.59;100139.59;1752769;81;21094;-75
2021/06/20 09:38:27;;;;;;;9.90;1.20;;;;;;;31.59;30.62;100139.41;1746591;81;21564;-74
2021/06/20 09:41:11;;;;;;;15.68;1.50;;;;;;;31.89;30.15;100140.98;1753609;81;21065;-76
2021/06/20 09:43:51;;;;;;;18.77;1.80;;;;;;;32.06;29.38;100135.28;1749777;81;21874;-75
2021/06/20 09:46:18;;;;;;;8.48;1.22;;;;;;;31.95;28.25;100140.17;1755786;81;21093;-74
2021/06/20 09:48:46;;;;;;;9.33;1.57;;;;;;;31.73;28.83;100133.08;1727229;81;21078;-74
2021/06/20 09:51:22;;;;;;;8.83;1.42;;;;;;;31.67;29.51;100139.29;1755540;81;21258;-75
2021/06/20 09:53:50;;;;;;;14.78;1.20;;;;;;;31.76;28.62;100138.13;1755198;81;21605;-75
2021/06/20 09:56:21;;;;;;;5.17;1.20;;;;;;;31.94;28.31;100138.50;1755117;81;21600;-74
2021/06/20 09:59:06;;;;;;;7.47;1.10;;;;;;;32.02;28.22;100129.89;1755109;81;21523;-74
2021/06/20 10:01:38;;;;;;;6.83;1.15;;;;;;;32.11;28.05;100128.72;1749893;80;21070;-76
2021/06/20 10:04:06;;;;;;;4.20;1.10;;;;;;;32.20;27.58;100120.72;1755282;81;21061;-74
2021/06/20 10:06:33;;;;;;;8.80;1.25;;;;;;;32.29;27.37;100122.78;1755275;81;21073;-75
2021/06/20 10:11:25;;;;;;;5.28;1.00;;;;;;;32.32;27.39;100123.20;1800546;79;22629;-75
2021/06/20 10:13:53;;;;;;;9.93;1.57;;;;;;;32.22;27.49;100125.45;1777444;79;21590;-74
2021/06/20 10:16:24;;;;;;;14.95;1.10;;;;;;;32.17;27.63;100118.40;1760425;80;21113;-74
2021/06/20 10:18:56;;;;;;;9.93;1.22;;;;;;;32.23;27.59;100128.48;1755921;80;20914;-74
2021/06/20 10:21:32;;;;;;;12.70;1.42;;;;;;;32.38;27.37;100124.31;1755620;80;21060;-74
2021/06/20 10:24:18;;;;;;;5.10;1.10;;;;;;;32.39;26.76;100125.48;1764056;80;21053;-76
2021/06/20 10:26:54;;;;;;;5.90;0.80;;;;;;;32.47;27.45;100118.19;1723149;81;22118;-74
2021/06/20 10:29:22;;;;;;;5.55;1.10;;;;;;;32.67;26.84;100116.45;1686113;83;21158;-75
2021/06/20 10:31:52;;;;;;;18.17;1.07;;;;;;;32.65;25.97;100117.17;1719901;81;21060;-74
2021/06/20 10:34:27;;;;;;;13.30;1.20;;;;;;;32.58;26.81;100110.84;1735301;81;21048;-74
2021/06/20 10:36:57;;;;;;;10.03;1.07;;;;;;;32.37;26.80;100107.12;1714856;82;21090;-75
2021/06/20 10:39:24;;;;;;;9.53;1.10;;;;;;;32.22;26.10;100096.84;1711113;83;21062;-73
2021/06/20 10:42:10;;;;;;;14.13;1.85;;;;;;;32.14;27.55;100110.60;1742008;81;21113;-73
2021/06/20 10:44:51;;;;;;;15.15;1.00;;;;;;;32.22;26.78;100090.03;1704611;83;21093;-74
2021/06/20 10:47:27;;;;;;;6.62;1.10;;;;;;;32.12;27.28;100101.28;1716441;83;21049;-74
2021/06/20 10:49:59;;;;;;;19.32;2.35;;;;;;;31.97;27.38;100101.36;1714529;83;21042;-74
2021/06/20 10:52:27;;;;;;;15.18;1.47;;;;;;;32.02;26.87;100108.11;1714456;83;21031;-75
2021/06/20 10:55:10;;;;;;;8.33;0.90;;;;;;;31.95;25.86;100091.67;1710177;83;21766;-74
2021/06/20 10:57:48;;;;;;;7.42;0.98;;;;;;;31.67;27.27;100082.13;1699989;83;21070;-74
2021/06/20 11:00:34;;;;;;;12.40;1.22;;;;;;;31.57;27.89;100081.10;1725191;81;21093;-75
2021/06/20 11:03:23;;;;;;;9.23;0.95;;;;;;;31.70;27.24;100079.00;1713699;81;21098;-74
2021/06/20 11:05:58;;;;;;;6.87;1.10;;;;;;;31.81;25.99;100078.47;1724251;81;21063;-75
2021/06/20 11:08:36;;;;;;;6.35;0.90;;;;;;;31.98;25.98;100074.47;1706483;83;21132;-74
2021/06/20 11:11:15;;;;;;;6.42;0.90;;;;;;;32.09;25.22;100070.34;1702223;83;21552;-74
2021/06/20 11:13:46;;;;;;;6.28;1.30;;;;;;;32.11;25.59;100061.98;1733094;82;21122;-76
2021/06/20 11:16:25;;;;;;;9.45;2.85;;;;;;;32.15;26.22;100067.36;1735346;82;21106;-74
2021/06/20 11:19:17;;;;;;;10.50;1.05;;;;;;;32.31;25.91;100069.77;1734510;82;21069;-75
2021/06/20 11:22:03;;;;;;;4.65;0.90;;;;;;;32.47;25.28;100076.78;1723417;81;21158;-74
2021/06/20 11:24:33;;;;;;;7.50;0.90;;;;;;;32.50;24.48;100065.98;1739180;82;20993;-74
2021/06/20 11:27:08;;;;;;;10.08;1.17;;;;;;;32.42;23.97;100060.69;1739570;82;21005;-74
2021/06/20 11:30:00;;;;;;;11.20;1.52;;;;;;;32.46;24.87;100066.06;1726760;82;21045;-74
2021/06/20 11:32:31;;;;;;;6.78;1.20;;;;;;;32.49;24.34;100062.95;1735943;82;21043;-74
2021/06/20 11:35:05;;;;;;;7.30;1.25;;;;;;;32.29;24.76;100062.30;1731613;82;21136;-74
2021/06/20 11:37:39;;;;;;;11.50;1.42;;;;;;;32.27;24.89;100064.91;1728873;81;21034;-74